createdAt,value
2023-01-07T00:00:06.244Z,0.00
2023-01-07T00:01:06.870Z,0.00
2023-01-07T00:02:07.827Z,0.00
2023-01-07T00:03:07.310Z,0.00
2023-01-07T00:04:07.402Z,0.00
2023-01-07T00:05:07.659Z,0.00
2023-01-07T00:06:07.856Z,0.00
2023-01-07T00:07:09.589Z,0.00
2023-01-07T00:08:08.424Z,0.00
2023-01-07T00:09:08.945Z,0.00
2023-01-07T00:10:09.000Z,0.00
2023-01-07T00:11:09.243Z,0.00
2023-01-07T00:12:09.489Z,0.00
2023-01-07T00:13:10.266Z,0.00
2023-01-07T00:14:10.067Z,0.00
2023-01-07T00:15:10.307Z,0.00
2023-01-07T00:16:10.721Z,0.00
2023-01-07T00:17:10.949Z,0.00
2023-01-07T00:18:11.176Z,0.00
2023-01-07T00:19:11.538Z,0.00
2023-01-07T00:20:11.752Z,0.00
2023-01-07T00:21:12.034Z,0.00
2023-01-07T00:22:12.287Z,0.00
2023-01-07T00:23:12.508Z,0.00
2023-01-07T00:24:12.767Z,0.00
2023-01-07T00:25:12.992Z,0.00
2023-01-07T00:26:13.236Z,0.00
2023-01-07T00:27:13.469Z,0.00
2023-01-07T00:28:13.736Z,0.00
2023-01-07T00:29:13.990Z,0.00
2023-01-07T00:30:14.456Z,0.00
2023-01-07T00:31:14.596Z,0.00
2023-01-07T00:32:14.797Z,0.00
2023-01-07T00:33:15.112Z,0.00
2023-01-07T00:34:15.440Z,0.00
2023-01-07T00:35:15.775Z,0.00
2023-01-07T00:36:16.222Z,0.00
2023-01-07T00:37:16.461Z,0.00
2023-01-07T00:38:16.711Z,0.00
2023-01-07T00:39:16.970Z,0.00
2023-01-07T00:40:17.211Z,0.00
2023-01-07T00:41:17.485Z,0.00
2023-01-07T00:42:17.774Z,0.00
2023-01-07T00:43:18.042Z,0.00
2023-01-07T00:44:18.282Z,0.00
2023-01-07T00:45:18.553Z,0.00
2023-01-07T00:46:18.865Z,0.00
2023-01-07T00:47:19.084Z,0.00
2023-01-07T00:48:19.346Z,0.00
2023-01-07T00:49:19.660Z,0.00
2023-01-07T00:50:19.907Z,0.00
2023-01-07T00:51:20.180Z,0.00
2023-01-07T00:52:20.431Z,0.00
2023-01-07T00:53:20.744Z,0.00
2023-01-07T00:54:21.010Z,0.00
2023-01-07T00:55:21.269Z,0.00
2023-01-07T00:56:21.536Z,0.00
2023-01-07T00:57:21.770Z,0.00
2023-01-07T00:58:22.015Z,0.00
2023-01-07T00:59:22.243Z,0.00
2023-01-07T01:00:22.498Z,0.00
2023-01-07T01:01:22.848Z,0.00
2023-01-07T01:02:22.973Z,0.00
2023-01-07T01:03:23.240Z,0.00
2023-01-07T01:04:23.476Z,0.00
2023-01-07T01:05:23.718Z,0.00
2023-01-07T01:06:23.954Z,0.00
2023-01-07T01:07:24.181Z,0.00
2023-01-07T01:08:24.549Z,0.00
2023-01-07T01:09:24.810Z,0.00
2023-01-07T01:10:25.048Z,0.00
2023-01-07T01:11:25.297Z,0.00
2023-01-07T01:12:25.559Z,0.00
2023-01-07T01:13:25.837Z,0.00
2023-01-07T01:14:26.067Z,0.00
2023-01-07T01:15:26.298Z,0.00
2023-01-07T01:16:26.699Z,0.00
2023-01-07T01:17:26.928Z,0.00
2023-01-07T01:18:27.182Z,0.00
2023-01-07T01:19:27.441Z,0.00
2023-01-07T01:20:27.755Z,0.00
2023-01-07T01:21:27.987Z,0.00
2023-01-07T01:22:28.277Z,0.00
2023-01-07T01:23:28.508Z,0.00
2023-01-07T01:24:28.741Z,0.00
2023-01-07T01:25:28.996Z,0.00
2023-01-07T01:26:29.249Z,0.00
2023-01-07T01:27:29.529Z,0.00
2023-01-07T01:28:29.823Z,0.00
2023-01-07T01:29:30.068Z,0.00
2023-01-07T01:30:30.326Z,0.00
2023-01-07T01:31:30.664Z,0.00
2023-01-07T01:32:30.899Z,0.00
2023-01-07T01:33:31.228Z,0.00
2023-01-07T01:34:31.449Z,0.00
2023-01-07T01:35:31.691Z,0.00
2023-01-07T01:36:31.960Z,0.00
2023-01-07T01:37:32.247Z,0.00
2023-01-07T01:38:32.497Z,0.00
2023-01-07T01:39:32.745Z,0.00
2023-01-07T01:40:32.986Z,0.00
2023-01-07T01:41:33.275Z,0.00
2023-01-07T01:42:33.512Z,0.00
2023-01-07T01:43:33.778Z,0.00
2023-01-07T01:44:34.033Z,0.00
2023-01-07T01:45:34.273Z,0.00
2023-01-07T01:46:34.706Z,0.00
2023-01-07T01:47:34.809Z,0.00
2023-01-07T01:48:35.053Z,0.00
2023-01-07T01:49:35.298Z,0.00
2023-01-07T01:50:35.589Z,0.00
2023-01-07T01:51:35.928Z,0.00
2023-01-07T01:52:36.142Z,0.00
2023-01-07T01:53:36.396Z,0.00
2023-01-07T01:54:36.644Z,0.00
2023-01-07T01:55:36.905Z,0.00
2023-01-07T01:56:37.166Z,0.00
2023-01-07T01:57:37.409Z,0.00
2023-01-07T01:58:37.655Z,0.00
2023-01-07T01:59:37.910Z,0.00
2023-01-07T02:00:38.252Z,0.00
2023-01-07T02:01:38.779Z,0.00
2023-01-07T02:02:38.853Z,0.00
2023-01-07T02:03:39.104Z,0.00
2023-01-07T02:04:39.375Z,0.00
2023-01-07T02:05:40.532Z,0.00
2023-01-07T02:06:39.935Z,0.00
2023-01-07T02:07:40.146Z,0.00
2023-01-07T02:08:40.433Z,0.00
2023-01-07T02:09:40.651Z,0.00
2023-01-07T02:10:40.903Z,0.00
2023-01-07T02:11:41.139Z,0.00
2023-01-07T02:12:41.364Z,0.00
2023-01-07T02:13:41.589Z,0.00
2023-01-07T02:14:41.829Z,0.00
2023-01-07T02:15:42.059Z,0.00
2023-01-07T02:16:42.306Z,0.00
2023-01-07T02:17:42.580Z,0.00
2023-01-07T02:18:42.816Z,0.00
2023-01-07T02:19:43.045Z,0.00
2023-01-07T02:20:43.304Z,0.00
2023-01-07T02:21:43.549Z,0.00
2023-01-07T02:22:43.819Z,0.00
2023-01-07T02:23:44.071Z,0.00
2023-01-07T02:24:44.322Z,0.00
2023-01-07T02:25:44.570Z,0.00
2023-01-07T02:26:44.803Z,0.00
2023-01-07T02:27:45.075Z,0.00
2023-01-07T02:28:45.319Z,0.00
2023-01-07T02:29:45.592Z,0.00
2023-01-07T02:30:45.838Z,0.00
2023-01-07T02:31:46.236Z,0.00
2023-01-07T02:32:46.422Z,0.00
2023-01-07T02:33:46.691Z,0.00
2023-01-07T02:34:46.962Z,0.00
2023-01-07T02:35:47.242Z,0.00
2023-01-07T02:36:47.509Z,0.00
2023-01-07T02:37:47.752Z,0.00
2023-01-07T02:38:48.001Z,0.00
2023-01-07T02:39:48.254Z,0.00
2023-01-07T02:40:48.540Z,0.00
2023-01-07T02:41:48.802Z,0.00
2023-01-07T02:42:49.072Z,0.00
2023-01-07T02:43:49.341Z,0.00
2023-01-07T02:44:49.642Z,0.00
2023-01-07T02:45:50.052Z,0.00
2023-01-07T02:46:50.340Z,0.00
2023-01-07T02:47:50.570Z,0.00
2023-01-07T02:48:50.883Z,0.00
2023-01-07T02:49:51.112Z,0.00
2023-01-07T02:50:51.422Z,0.00
2023-01-07T02:51:51.646Z,0.00
2023-01-07T02:52:51.905Z,0.00
2023-01-07T02:53:52.153Z,0.00
2023-01-07T02:54:52.384Z,0.00
2023-01-07T02:55:52.672Z,0.00
2023-01-07T02:56:52.895Z,0.00
2023-01-07T02:57:53.147Z,0.00
2023-01-07T02:58:53.402Z,0.00
2023-01-07T02:59:53.625Z,0.00
2023-01-07T03:00:54.065Z,0.00
2023-01-07T03:01:54.345Z,0.00
2023-01-07T03:02:54.425Z,0.00
2023-01-07T03:03:54.820Z,0.00
2023-01-07T03:04:54.994Z,0.00
2023-01-07T03:05:55.285Z,0.00
2023-01-07T03:06:55.715Z,0.00
2023-01-07T03:07:55.845Z,0.00
2023-01-07T03:08:56.081Z,0.00
2023-01-07T03:09:56.327Z,0.00
2023-01-07T03:10:56.592Z,0.00
2023-01-07T03:11:56.847Z,0.00
2023-01-07T03:12:57.085Z,0.00
2023-01-07T03:13:57.334Z,0.00
2023-01-07T03:14:57.589Z,0.00
2023-01-07T03:15:57.863Z,0.00
2023-01-07T03:16:58.141Z,0.00
2023-01-07T03:17:58.371Z,0.00
2023-01-07T03:18:58.653Z,0.00
2023-01-07T03:19:58.892Z,0.00
2023-01-07T03:20:59.162Z,0.00
2023-01-07T03:21:59.390Z,0.00
2023-01-07T03:22:59.658Z,0.00
2023-01-07T03:23:59.948Z,0.00
2023-01-07T03:25:00.207Z,0.00
2023-01-07T03:26:00.428Z,0.00
2023-01-07T03:27:00.678Z,0.00
2023-01-07T03:28:00.898Z,0.00
2023-01-07T03:29:01.171Z,0.00
2023-01-07T03:30:01.398Z,0.00
2023-01-07T03:31:01.697Z,0.00
2023-01-07T03:32:02.001Z,0.00
2023-01-07T03:33:02.279Z,0.00
2023-01-07T03:34:02.633Z,0.00
2023-01-07T03:35:02.843Z,0.00
2023-01-07T03:36:03.099Z,0.00
2023-01-07T03:37:03.359Z,0.00
2023-01-07T03:38:03.583Z,0.00
2023-01-07T03:39:03.819Z,0.00
2023-01-07T03:40:04.081Z,0.00
2023-01-07T03:41:04.374Z,0.00
2023-01-07T03:42:04.642Z,0.00
2023-01-07T03:43:04.874Z,0.00
2023-01-07T03:44:05.092Z,0.00
2023-01-07T03:45:05.450Z,0.00
2023-01-07T03:46:05.825Z,0.00
2023-01-07T03:47:05.961Z,0.00
2023-01-07T03:48:06.205Z,0.00
2023-01-07T03:49:06.455Z,0.00
2023-01-07T03:50:06.671Z,0.00
2023-01-07T03:51:07.041Z,0.00
2023-01-07T03:52:07.285Z,0.00
2023-01-07T03:53:07.646Z,0.00
2023-01-07T03:54:07.883Z,0.00
2023-01-07T03:55:08.142Z,0.00
2023-01-07T03:56:08.400Z,0.00
2023-01-07T03:57:08.645Z,0.00
2023-01-07T03:58:08.945Z,0.00
2023-01-07T03:59:09.194Z,0.00
2023-01-07T04:00:09.468Z,0.00
2023-01-07T04:01:09.856Z,0.00
2023-01-07T04:02:10.141Z,0.00
2023-01-07T04:03:10.279Z,0.00
2023-01-07T04:04:10.549Z,0.00
2023-01-07T04:05:10.785Z,0.00
2023-01-07T04:06:11.168Z,0.00
2023-01-07T04:07:11.398Z,0.00
2023-01-07T04:08:11.635Z,0.00
2023-01-07T04:09:11.886Z,0.00
2023-01-07T04:10:12.171Z,0.00
2023-01-07T04:11:12.397Z,0.00
2023-01-07T04:12:12.649Z,0.00
2023-01-07T04:13:12.881Z,0.00
2023-01-07T04:14:13.127Z,0.00
2023-01-07T04:15:13.403Z,0.00
2023-01-07T04:16:13.724Z,0.00
2023-01-07T04:17:13.941Z,0.00
2023-01-07T04:18:14.219Z,0.00
2023-01-07T04:19:14.461Z,0.00
2023-01-07T04:20:15.491Z,0.00
2023-01-07T04:21:15.061Z,0.00
2023-01-07T04:22:15.374Z,0.00
2023-01-07T04:23:15.605Z,0.00
2023-01-07T04:24:15.834Z,0.00
2023-01-07T04:25:16.079Z,0.00
2023-01-07T04:26:16.341Z,0.00
2023-01-07T04:27:16.572Z,0.00
2023-01-07T04:28:16.857Z,0.00
2023-01-07T04:29:18.398Z,0.00
2023-01-07T04:30:17.450Z,0.00
2023-01-07T04:31:17.691Z,0.00
2023-01-07T04:32:17.970Z,0.00
2023-01-07T04:33:18.229Z,0.00
2023-01-07T04:34:18.455Z,0.00
2023-01-07T04:35:18.816Z,0.00
2023-01-07T04:36:19.079Z,0.00
2023-01-07T04:37:19.322Z,0.00
2023-01-07T04:38:19.602Z,0.00
2023-01-07T04:39:19.822Z,0.00
2023-01-07T04:40:20.208Z,0.00
2023-01-07T04:41:20.494Z,0.00
2023-01-07T04:42:20.792Z,0.00
2023-01-07T04:43:21.128Z,0.00
2023-01-07T04:44:21.354Z,0.00
2023-01-07T04:45:21.589Z,0.00
2023-01-07T04:46:21.943Z,0.00
2023-01-07T04:47:22.190Z,0.00
2023-01-07T04:48:22.451Z,0.00
2023-01-07T04:49:22.703Z,0.00
2023-01-07T04:50:22.972Z,0.00
2023-01-07T04:51:23.216Z,0.00
2023-01-07T04:52:23.476Z,0.00
2023-01-07T04:53:23.749Z,0.00
2023-01-07T04:54:24.012Z,0.00
2023-01-07T04:55:24.246Z,0.00
2023-01-07T04:56:24.533Z,0.00
2023-01-07T04:57:24.789Z,0.00
2023-01-07T04:58:25.070Z,0.00
2023-01-07T04:59:25.354Z,0.00
2023-01-07T05:00:25.603Z,0.00
2023-01-07T05:01:26.015Z,0.00
2023-01-07T05:02:26.158Z,0.00
2023-01-07T05:03:26.422Z,0.00
2023-01-07T05:04:26.788Z,0.00
2023-01-07T05:05:27.005Z,0.00
2023-01-07T05:06:27.292Z,0.00
2023-01-07T05:07:27.595Z,0.00
2023-01-07T05:08:27.856Z,0.00
2023-01-07T05:09:28.113Z,0.00
2023-01-07T05:10:28.368Z,0.00
2023-01-07T05:11:28.630Z,0.00
2023-01-07T05:12:28.867Z,0.00
2023-01-07T05:13:29.120Z,0.00
2023-01-07T05:14:29.387Z,0.00
2023-01-07T05:15:29.639Z,0.00
2023-01-07T05:16:29.916Z,0.00
2023-01-07T05:17:30.152Z,0.00
2023-01-07T05:18:30.386Z,0.00
2023-01-07T05:19:30.644Z,0.00
2023-01-07T05:20:30.888Z,0.00
2023-01-07T05:21:31.124Z,0.00
2023-01-07T05:22:31.342Z,0.00
2023-01-07T05:23:31.590Z,0.00
2023-01-07T05:24:31.867Z,0.00
2023-01-07T05:25:32.155Z,0.00
2023-01-07T05:26:32.438Z,0.00
2023-01-07T05:27:32.659Z,0.00
2023-01-07T05:28:32.923Z,0.00
2023-01-07T05:29:33.152Z,0.00
2023-01-07T05:30:33.492Z,0.00
2023-01-07T05:31:33.716Z,0.00
2023-01-07T05:32:33.982Z,0.00
2023-01-07T05:33:34.260Z,0.00
2023-01-07T05:34:34.544Z,0.00
2023-01-07T05:35:34.788Z,0.00
2023-01-07T05:36:34.990Z,0.00
2023-01-07T05:37:35.323Z,0.00
2023-01-07T05:38:35.679Z,0.00
2023-01-07T05:39:35.964Z,0.00
2023-01-07T05:40:36.282Z,0.00
2023-01-07T05:41:36.543Z,0.00
2023-01-07T05:42:36.785Z,0.00
2023-01-07T05:43:37.015Z,0.00
2023-01-07T05:44:37.266Z,0.00
2023-01-07T05:45:37.709Z,0.00
2023-01-07T05:46:37.836Z,0.00
2023-01-07T05:47:38.144Z,0.00
2023-01-07T05:48:38.426Z,0.00
2023-01-07T05:49:38.780Z,0.00
2023-01-07T05:50:39.006Z,0.00
2023-01-07T05:51:39.307Z,0.00
2023-01-07T05:52:39.537Z,0.00
2023-01-07T05:53:39.803Z,0.00
2023-01-07T05:54:40.104Z,0.00
2023-01-07T05:55:40.381Z,0.00
2023-01-07T05:56:40.605Z,0.00
2023-01-07T05:57:40.964Z,0.00
2023-01-07T05:58:41.224Z,0.00
2023-01-07T05:59:41.446Z,0.00
2023-01-07T06:00:41.687Z,0.00
2023-01-07T06:01:41.947Z,0.00
2023-01-07T06:02:42.204Z,0.00
2023-01-07T06:03:42.523Z,0.00
2023-01-07T06:04:42.846Z,0.00
2023-01-07T06:05:43.107Z,0.00
2023-01-07T06:06:43.367Z,0.00
2023-01-07T06:07:43.712Z,0.00
2023-01-07T06:08:43.987Z,0.00
2023-01-07T06:09:44.288Z,0.00
2023-01-07T06:10:44.525Z,0.00
2023-01-07T06:11:44.837Z,0.00
2023-01-07T06:12:45.105Z,0.00
2023-01-07T06:13:45.349Z,0.00
2023-01-07T06:14:45.638Z,0.00
2023-01-07T06:15:45.911Z,0.00
2023-01-07T06:16:46.197Z,0.00
2023-01-07T06:17:46.448Z,0.00
2023-01-07T06:18:46.712Z,0.00
2023-01-07T06:19:47.023Z,0.00
2023-01-07T06:20:47.251Z,0.00
2023-01-07T06:21:47.480Z,0.00
2023-01-07T06:22:47.717Z,0.00
2023-01-07T06:23:47.997Z,0.00
2023-01-07T06:24:48.240Z,0.00
2023-01-07T06:25:48.528Z,0.00
2023-01-07T06:26:48.785Z,0.00
2023-01-07T06:27:49.031Z,0.00
2023-01-07T06:28:49.281Z,0.00
2023-01-07T06:29:49.518Z,0.00
2023-01-07T06:30:49.825Z,0.00
2023-01-07T06:31:50.070Z,0.00
2023-01-07T06:32:50.359Z,0.00
2023-01-07T06:33:50.592Z,0.00
2023-01-07T06:34:50.871Z,0.00
2023-01-07T06:35:51.154Z,0.00
2023-01-07T06:36:51.392Z,0.00
2023-01-07T06:37:51.666Z,0.00
2023-01-07T06:38:51.962Z,0.00
2023-01-07T06:39:52.221Z,0.00
2023-01-07T06:40:52.481Z,0.00
2023-01-07T06:41:52.854Z,0.00
2023-01-07T06:42:53.050Z,0.00
2023-01-07T06:43:53.436Z,0.00
2023-01-07T06:44:53.665Z,0.00
2023-01-07T06:45:53.973Z,0.00
2023-01-07T06:46:54.256Z,0.00
2023-01-07T06:47:54.517Z,0.00
2023-01-07T06:48:54.822Z,0.00
2023-01-07T06:49:55.150Z,0.00
2023-01-07T06:50:55.470Z,0.00
2023-01-07T06:51:55.694Z,0.00
2023-01-07T06:52:56.003Z,0.00
2023-01-07T06:53:56.379Z,0.00
2023-01-07T06:54:56.690Z,0.00
2023-01-07T06:55:56.966Z,0.00
2023-01-07T06:56:57.225Z,0.00
2023-01-07T06:57:57.596Z,0.00
2023-01-07T06:58:57.785Z,0.00
2023-01-07T06:59:58.132Z,0.00
2023-01-07T07:00:58.363Z,0.00
2023-01-07T07:01:58.772Z,0.00
2023-01-07T07:02:59.114Z,0.00
2023-01-07T07:03:59.261Z,0.00
2023-01-07T07:04:59.520Z,0.00
2023-01-07T07:05:59.819Z,0.00
2023-01-07T07:07:00.113Z,0.00
2023-01-07T07:08:00.433Z,0.00
2023-01-07T07:09:00.744Z,0.00
2023-01-07T07:10:01.056Z,0.00
2023-01-07T07:11:01.312Z,0.00
2023-01-07T07:12:01.610Z,0.00
2023-01-07T07:13:01.876Z,0.00
2023-01-07T07:14:02.152Z,0.00
2023-01-07T07:15:02.456Z,0.00
2023-01-07T07:16:02.824Z,0.00
2023-01-07T07:17:03.113Z,0.00
2023-01-07T07:18:03.400Z,0.00
2023-01-07T07:19:03.703Z,0.00
2023-01-07T07:20:03.950Z,0.00
2023-01-07T07:21:04.212Z,0.00
2023-01-07T07:22:04.879Z,0.00
2023-01-07T07:23:04.773Z,0.00
2023-01-07T07:24:05.091Z,0.00
2023-01-07T07:25:05.359Z,0.00
2023-01-07T07:26:05.680Z,0.00
2023-01-07T07:27:05.997Z,0.00
2023-01-07T07:28:06.283Z,0.00
2023-01-07T07:29:06.561Z,0.00
2023-01-07T07:30:06.868Z,0.00
2023-01-07T07:31:07.145Z,0.00
2023-01-07T07:32:07.431Z,0.00
2023-01-07T07:33:07.766Z,0.00
2023-01-07T07:34:08.035Z,0.00
2023-01-07T07:35:08.300Z,0.00
2023-01-07T07:36:08.584Z,0.00
2023-01-07T07:37:08.867Z,0.00
2023-01-07T07:38:09.216Z,5.62
2023-01-07T07:39:09.456Z,5.62
2023-01-07T07:40:09.754Z,5.62
2023-01-07T07:41:10.029Z,5.62
2023-01-07T07:42:10.339Z,5.62
2023-01-07T07:43:13.007Z,5.62
2023-01-07T07:44:10.903Z,5.62
2023-01-07T07:45:11.273Z,5.62
2023-01-07T07:46:11.444Z,5.62
2023-01-07T07:47:11.716Z,5.62
2023-01-07T07:48:11.997Z,5.62
2023-01-07T07:49:12.270Z,11.25
2023-01-07T07:50:12.514Z,11.25
2023-01-07T07:51:12.777Z,11.25
2023-01-07T07:52:13.015Z,16.88
2023-01-07T07:53:13.265Z,16.88
2023-01-07T07:54:13.534Z,16.88
2023-01-07T07:55:19.852Z,16.88
2023-01-07T07:56:15.143Z,16.88
2023-01-07T07:57:14.447Z,16.88
2023-01-07T07:58:14.689Z,16.88
2023-01-07T07:59:14.925Z,22.50
2023-01-07T08:00:15.270Z,22.50
2023-01-07T08:01:15.586Z,16.88
2023-01-07T08:02:15.793Z,16.88
2023-01-07T08:03:16.064Z,22.50
2023-01-07T08:04:16.337Z,22.50
2023-01-07T08:05:16.626Z,22.50
2023-01-07T08:06:16.953Z,22.50
2023-01-07T08:07:32.416Z,28.12
2023-01-07T08:08:18.598Z,28.12
2023-01-07T08:09:17.787Z,28.12
2023-01-07T08:10:18.089Z,33.75
2023-01-07T08:11:18.536Z,33.75
2023-01-07T08:12:18.730Z,39.38
2023-01-07T08:13:18.900Z,39.38
2023-01-07T08:14:19.169Z,39.38
2023-01-07T08:15:19.508Z,39.38
2023-01-07T08:16:19.835Z,39.38
2023-01-07T08:17:20.076Z,39.38
2023-01-07T08:18:20.409Z,39.38
2023-01-07T08:19:20.608Z,45.00
2023-01-07T08:20:20.921Z,50.62
2023-01-07T08:21:21.242Z,56.25
2023-01-07T08:22:21.544Z,56.25
2023-01-07T08:23:21.871Z,56.25
2023-01-07T08:24:22.450Z,56.25
2023-01-07T08:25:22.391Z,56.25
2023-01-07T08:26:22.660Z,56.25
2023-01-07T08:27:22.950Z,56.25
2023-01-07T08:28:23.298Z,56.25
2023-01-07T08:29:23.969Z,56.25
2023-01-07T08:30:23.808Z,61.88
2023-01-07T08:31:24.161Z,56.25
2023-01-07T08:32:24.477Z,56.25
2023-01-07T08:33:24.663Z,50.62
2023-01-07T08:34:25.545Z,50.62
2023-01-07T08:38:13.273Z,39.38
2023-01-07T08:39:11.283Z,39.38
2023-01-07T08:40:11.124Z,45.00
2023-01-07T08:41:11.177Z,50.62
2023-01-07T08:42:11.498Z,50.62
2023-01-07T08:43:11.869Z,50.62
2023-01-07T08:44:12.097Z,56.25
2023-01-07T08:45:12.272Z,56.25
2023-01-07T08:46:12.554Z,56.25
2023-01-07T08:47:12.887Z,50.62
2023-01-07T08:48:13.203Z,45.00
2023-01-07T08:49:13.463Z,39.38
2023-01-07T08:50:13.863Z,33.75
2023-01-07T08:51:14.016Z,33.75
2023-01-07T08:52:14.324Z,28.12
2023-01-07T08:53:14.802Z,28.12
2023-01-07T08:54:15.161Z,28.12
2023-01-07T08:55:15.272Z,33.75
2023-01-07T08:56:15.529Z,39.38
2023-01-07T08:57:15.921Z,45.00
2023-01-07T08:58:16.124Z,45.00
2023-01-07T08:59:16.632Z,39.38
2023-01-07T09:00:16.764Z,39.38
2023-01-07T09:01:17.178Z,39.38
2023-01-07T09:02:17.626Z,61.88
2023-01-07T09:03:17.561Z,67.50
2023-01-07T09:04:17.866Z,56.25
2023-01-07T09:05:18.157Z,45.00
2023-01-07T09:06:18.482Z,39.38
2023-01-07T09:07:18.820Z,33.75
2023-01-07T09:08:19.115Z,39.38
2023-01-07T09:09:19.518Z,39.38
2023-01-07T09:10:19.777Z,45.00
2023-01-07T09:11:19.984Z,50.62
2023-01-07T09:12:20.163Z,61.88
2023-01-07T09:13:20.467Z,67.50
2023-01-07T09:14:20.900Z,73.12
2023-01-07T09:15:21.038Z,73.12
2023-01-07T09:16:21.326Z,78.75
2023-01-07T09:17:24.092Z,78.75
2023-01-07T09:18:21.830Z,84.38
2023-01-07T09:19:22.149Z,84.38
2023-01-07T09:20:22.438Z,84.38
2023-01-07T09:21:22.971Z,84.38
2023-01-07T09:22:23.016Z,84.38
2023-01-07T09:23:23.341Z,90.00
2023-01-07T09:24:23.660Z,90.00
2023-01-07T09:25:23.958Z,90.00
2023-01-07T09:26:24.322Z,90.00
2023-01-07T09:27:24.653Z,90.00
2023-01-07T09:28:25.058Z,84.38
2023-01-07T09:29:25.230Z,84.38
2023-01-07T09:30:25.607Z,84.38
2023-01-07T09:31:26.088Z,84.38
2023-01-07T09:32:26.009Z,84.38
2023-01-07T09:33:27.125Z,84.38
2023-01-07T09:34:26.616Z,90.00
2023-01-07T09:35:26.925Z,90.00
2023-01-07T09:36:27.949Z,95.62
2023-01-07T09:37:27.564Z,95.62
2023-01-07T09:38:28.464Z,90.00
2023-01-07T09:39:27.971Z,90.00
2023-01-07T09:40:28.263Z,84.38
2023-01-07T09:41:28.570Z,84.38
2023-01-07T09:42:28.885Z,84.38
2023-01-07T09:44:00.127Z,84.38
2023-01-07T09:44:31.151Z,84.38
2023-01-07T09:45:29.749Z,84.38
2023-01-07T09:46:29.990Z,84.38
2023-01-07T09:47:30.265Z,84.38
2023-01-07T09:48:30.631Z,84.38
2023-01-07T09:49:30.884Z,90.00
2023-01-07T09:50:31.066Z,95.62
2023-01-07T09:51:31.397Z,95.62
2023-01-07T09:52:31.698Z,95.62
2023-01-07T09:53:32.009Z,101.25
2023-01-07T09:54:32.251Z,101.25
2023-01-07T09:55:32.504Z,95.62
2023-01-07T09:56:32.796Z,95.62
2023-01-07T09:57:33.093Z,95.62
2023-01-07T09:58:33.339Z,101.25
2023-01-07T09:59:33.655Z,101.25
2023-01-07T10:00:33.925Z,106.88
2023-01-07T10:01:34.222Z,106.88
2023-01-07T10:02:34.640Z,112.50
2023-01-07T10:03:34.753Z,112.50
2023-01-07T10:04:35.053Z,118.12
2023-01-07T10:05:35.351Z,118.12
2023-01-07T10:06:43.604Z,118.12
2023-01-07T10:07:36.882Z,118.12
2023-01-07T10:08:36.104Z,112.50
2023-01-07T10:09:36.406Z,112.50
2023-01-07T10:10:36.670Z,106.88
2023-01-07T10:11:37.682Z,101.25
2023-01-07T10:12:37.187Z,95.62
2023-01-07T10:13:37.470Z,101.25
2023-01-07T10:14:37.907Z,95.62
2023-01-07T10:15:38.033Z,95.62
2023-01-07T10:16:38.316Z,101.25
2023-01-07T10:17:38.543Z,95.62
2023-01-07T10:18:38.825Z,101.25
2023-01-07T10:19:39.113Z,95.62
2023-01-07T10:20:39.380Z,95.62
2023-01-07T10:21:39.660Z,106.88
2023-01-07T10:22:40.025Z,106.88
2023-01-07T10:23:40.177Z,101.25
2023-01-07T10:24:40.469Z,106.88
2023-01-07T10:25:40.771Z,106.88
2023-01-07T10:26:41.143Z,106.88
2023-01-07T10:27:41.417Z,106.88
2023-01-07T10:28:41.715Z,101.25
2023-01-07T10:29:41.966Z,101.25
2023-01-07T10:30:42.255Z,95.62
2023-01-07T10:31:42.698Z,90.00
2023-01-07T10:32:42.850Z,90.00
2023-01-07T10:33:43.140Z,95.62
2023-01-07T10:34:43.417Z,95.62
2023-01-07T10:35:43.695Z,101.25
2023-01-07T10:36:43.974Z,101.25
2023-01-07T10:37:44.276Z,101.25
2023-01-07T10:38:44.560Z,101.25
2023-01-07T10:39:44.828Z,101.25
2023-01-07T10:40:46.080Z,106.88
2023-01-07T10:41:45.475Z,106.88
2023-01-07T10:42:45.791Z,106.88
2023-01-07T10:43:46.086Z,106.88
2023-01-07T10:44:46.400Z,112.50
2023-01-07T10:45:46.809Z,112.50
2023-01-07T10:46:47.030Z,140.62
2023-01-07T10:47:47.224Z,129.38
2023-01-07T10:48:47.591Z,118.12
2023-01-07T10:49:47.798Z,118.12
2023-01-07T10:50:48.138Z,112.50
2023-01-07T10:51:48.370Z,112.50
2023-01-07T10:52:48.582Z,112.50
2023-01-07T10:53:48.923Z,112.50
2023-01-07T10:54:49.274Z,106.88
2023-01-07T10:55:49.492Z,101.25
2023-01-07T10:56:49.840Z,95.62
2023-01-07T10:57:50.059Z,95.62
2023-01-07T10:58:50.398Z,118.12
2023-01-07T10:59:50.740Z,112.50
2023-01-07T11:00:51.115Z,118.12
2023-01-07T11:01:51.480Z,112.50
2023-01-07T11:02:51.666Z,129.38
2023-01-07T11:03:51.915Z,118.12
2023-01-07T11:04:52.163Z,118.12
2023-01-07T11:05:52.480Z,129.38
2023-01-07T11:06:52.754Z,123.75
2023-01-07T11:07:52.996Z,123.75
2023-01-07T11:08:53.244Z,123.75
2023-01-07T11:09:53.502Z,123.75
2023-01-07T11:10:53.804Z,112.50
2023-01-07T11:11:54.046Z,112.50
2023-01-07T11:12:54.310Z,118.12
2023-01-07T11:13:54.552Z,123.75
2023-01-07T11:14:54.812Z,129.38
2023-01-07T11:15:55.101Z,129.38
2023-01-07T11:16:55.656Z,129.38
2023-01-07T11:17:55.641Z,129.38
2023-01-07T11:18:56.068Z,123.75
2023-01-07T11:20:24.872Z,135.00
2023-01-07T11:20:56.729Z,135.00
2023-01-07T11:21:57.529Z,129.38
2023-01-07T11:22:57.188Z,123.75
2023-01-07T11:24:07.362Z,118.12
2023-01-07T11:24:57.770Z,118.12
2023-01-07T11:25:58.336Z,106.88
2023-01-07T11:26:58.372Z,106.88
2023-01-07T11:27:58.715Z,101.25
2023-01-07T11:28:59.053Z,101.25
2023-01-07T11:29:59.356Z,101.25
2023-01-07T11:31:00.340Z,95.62
2023-01-07T11:32:00.015Z,95.62
2023-01-07T11:33:00.364Z,95.62
2023-01-07T11:34:02.865Z,101.25
2023-01-07T11:35:00.963Z,106.88
2023-01-07T11:36:01.405Z,112.50
2023-01-07T11:37:01.605Z,106.88
2023-01-07T11:38:01.801Z,106.88
2023-01-07T11:39:02.086Z,112.50
2023-01-07T11:40:02.356Z,118.12
2023-01-07T11:41:02.646Z,123.75
2023-01-07T11:42:02.937Z,135.00
2023-01-07T11:43:03.247Z,140.62
2023-01-07T11:44:03.577Z,140.62
2023-01-07T11:45:03.850Z,140.62
2023-01-07T11:46:20.276Z,140.62
2023-01-07T11:47:05.390Z,140.62
2023-01-07T11:48:04.766Z,146.25
2023-01-07T11:49:05.028Z,135.00
2023-01-07T11:50:05.311Z,140.62
2023-01-07T11:51:05.617Z,140.62
2023-01-07T11:52:05.939Z,135.00
2023-01-07T11:53:06.198Z,140.62
2023-01-07T11:54:06.529Z,129.38
2023-01-07T11:55:06.669Z,129.38
2023-01-07T11:56:06.958Z,118.12
2023-01-07T11:57:07.233Z,112.50
2023-01-07T11:58:30.109Z,101.25
2023-01-07T11:59:08.882Z,95.62
2023-01-07T12:00:08.231Z,101.25
2023-01-07T12:01:08.598Z,90.00
2023-01-07T12:02:08.916Z,90.00
2023-01-07T12:03:09.101Z,84.38
2023-01-07T12:04:09.433Z,90.00
2023-01-07T12:05:09.682Z,101.25
2023-01-07T12:06:09.995Z,112.50
2023-01-07T12:07:10.330Z,112.50
2023-01-07T12:08:10.613Z,123.75
2023-01-07T12:09:10.917Z,123.75
2023-01-07T12:10:11.263Z,118.12
2023-01-07T12:11:11.652Z,123.75
2023-01-07T12:12:11.858Z,118.12
2023-01-07T12:13:12.078Z,106.88
2023-01-07T12:14:12.284Z,95.62
2023-01-07T12:15:12.607Z,95.62
2023-01-07T12:16:12.969Z,101.25
2023-01-07T12:17:13.237Z,101.25
2023-01-07T12:18:13.597Z,95.62
2023-01-07T12:19:13.772Z,90.00
2023-01-07T12:20:14.142Z,90.00
2023-01-07T12:21:14.359Z,90.00
2023-01-07T12:22:14.737Z,90.00
2023-01-07T12:23:14.902Z,84.38
2023-01-07T12:24:15.253Z,78.75
2023-01-07T12:25:15.437Z,73.12
2023-01-07T12:26:15.784Z,73.12
2023-01-07T12:27:16.056Z,78.75
2023-01-07T12:28:16.353Z,78.75
2023-01-07T12:29:16.627Z,78.75
2023-01-07T12:30:16.999Z,78.75
2023-01-07T12:31:17.258Z,73.12
2023-01-07T12:32:17.430Z,73.12
2023-01-07T12:33:17.807Z,78.75
2023-01-07T12:34:18.131Z,78.75
2023-01-07T12:35:18.562Z,78.75
2023-01-07T12:36:18.770Z,78.75
2023-01-07T12:37:18.926Z,73.12
2023-01-07T12:38:19.246Z,67.50
2023-01-07T12:39:19.622Z,67.50
2023-01-07T12:40:19.846Z,61.88
2023-01-07T12:41:20.229Z,61.88
2023-01-07T12:43:20.572Z,67.50
2023-01-07T12:44:20.909Z,67.50
2023-01-07T12:45:21.254Z,73.12
2023-01-07T12:46:21.474Z,78.75
2023-01-07T12:47:32.379Z,78.75
2023-01-07T12:48:22.983Z,84.38
2023-01-07T12:49:22.234Z,90.00
2023-01-07T12:50:22.636Z,101.25
2023-01-07T12:51:22.808Z,106.88
2023-01-07T12:52:23.183Z,112.50
2023-01-07T12:53:23.560Z,118.12
2023-01-07T12:54:23.857Z,118.12
2023-01-07T12:55:24.156Z,112.50
2023-01-07T12:56:24.432Z,112.50
2023-01-07T12:57:24.711Z,112.50
2023-01-07T12:58:24.998Z,106.88
2023-01-07T12:59:45.909Z,106.88
2023-01-07T13:00:26.620Z,106.88
2023-01-07T13:01:25.923Z,106.88
2023-01-07T13:02:26.278Z,101.25
2023-01-07T13:03:26.416Z,106.88
2023-01-07T13:04:26.752Z,106.88
2023-01-07T13:05:27.053Z,106.88
2023-01-07T13:06:27.371Z,106.88
2023-01-07T13:07:27.708Z,106.88
2023-01-07T13:08:27.935Z,101.25
2023-01-07T13:09:28.279Z,95.62
2023-01-07T13:10:28.612Z,95.62